createdAt,value
2017-08-09T00:01:47.508Z,85.30
2017-08-09T00:04:15.213Z,85.40
2017-08-09T00:06:42.817Z,85.60
2017-08-09T00:09:10.408Z,85.70
2017-08-09T00:11:38.089Z,85.60
2017-08-09T00:14:05.670Z,85.60
2017-08-09T00:16:33.265Z,85.80
2017-08-09T00:19:01.681Z,85.90
2017-08-09T00:21:30.038Z,86.00
2017-08-09T00:23:58.389Z,85.90
2017-08-09T00:26:26.030Z,85.90
2017-08-09T00:28:53.625Z,86.00
2017-08-09T00:31:21.301Z,86.20
2017-08-09T00:33:48.936Z,86.50
2017-08-09T00:36:16.540Z,86.30
2017-08-09T00:38:44.142Z,86.40
2017-08-09T00:41:11.796Z,86.00
2017-08-09T00:43:39.389Z,85.00
2017-08-09T00:46:06.997Z,85.20
2017-08-09T00:48:35.410Z,85.50
2017-08-09T00:51:02.983Z,85.20
2017-08-09T00:53:30.559Z,85.40
2017-08-09T00:55:58.182Z,85.20
2017-08-09T00:58:25.773Z,84.80
2017-08-09T01:00:53.347Z,84.80
2017-08-09T01:03:20.980Z,84.50
2017-08-09T01:05:48.580Z,84.70
2017-08-09T01:08:16.936Z,84.70
2017-08-09T01:10:45.323Z,84.70
2017-08-09T01:13:12.908Z,84.70
2017-08-09T01:15:40.483Z,84.60
2017-08-09T01:18:08.890Z,84.20
2017-08-09T01:20:36.487Z,84.10
2017-08-09T01:23:04.076Z,84.20
2017-08-09T01:25:31.791Z,84.20
2017-08-09T01:27:59.398Z,84.70
2017-08-09T01:30:27.748Z,84.10
2017-08-09T01:32:55.396Z,84.10
2017-08-09T01:35:23.757Z,83.40
2017-08-09T01:37:51.359Z,83.90
2017-08-09T01:40:19.001Z,84.10
2017-08-09T01:42:46.592Z,84.00
2017-08-09T01:45:14.943Z,84.10
2017-08-09T01:47:42.592Z,83.70
2017-08-09T01:50:10.190Z,83.70
2017-08-09T01:52:37.781Z,83.60
2017-08-09T01:55:05.442Z,83.50
2017-08-09T01:57:33.799Z,83.50
2017-08-09T02:00:02.592Z,83.40
2017-08-09T02:02:30.448Z,83.40
2017-08-09T02:04:58.037Z,83.60
2017-08-09T02:07:25.614Z,83.50
2017-08-09T02:09:54.022Z,83.10
2017-08-09T02:12:21.608Z,83.00
2017-08-09T02:14:49.200Z,83.10
2017-08-09T02:17:16.819Z,82.80
2017-08-09T02:19:45.202Z,82.90
2017-08-09T02:22:12.788Z,82.90
2017-08-09T02:24:40.430Z,82.50
2017-08-09T02:27:08.016Z,82.50
2017-08-09T02:29:36.365Z,82.10
2017-08-09T02:32:04.248Z,82.00
2017-08-09T02:34:31.844Z,82.20
2017-08-09T02:36:59.418Z,82.10
2017-08-09T02:39:27.823Z,82.00
2017-08-09T02:41:55.422Z,82.00
2017-08-09T02:44:23.772Z,82.10
2017-08-09T02:46:52.171Z,82.00
2017-08-09T02:49:19.772Z,81.90
2017-08-09T02:51:47.348Z,82.00
2017-08-09T02:54:15.011Z,81.00
2017-08-09T02:56:42.587Z,81.00
2017-08-09T02:59:10.165Z,80.50
2017-08-09T03:01:38.574Z,80.20
2017-08-09T03:04:06.152Z,80.20
2017-08-09T03:06:33.735Z,80.10
2017-08-09T03:09:01.365Z,79.70
2017-08-09T03:11:29.716Z,79.70
2017-08-09T03:13:58.068Z,79.10
2017-08-09T03:16:25.699Z,79.00
2017-08-09T03:18:53.271Z,79.20
2017-08-09T03:21:20.856Z,78.90
2017-08-09T03:23:48.496Z,78.90
2017-08-09T03:26:16.094Z,78.90
2017-08-09T03:28:43.684Z,78.50
2017-08-09T03:31:12.092Z,78.50
2017-08-09T03:33:39.684Z,78.50
2017-08-09T03:36:08.046Z,79.40
2017-08-09T03:38:36.456Z,79.30
2017-08-09T03:41:04.048Z,79.30
2017-08-09T03:43:32.408Z,79.20
2017-08-09T03:46:00.803Z,79.20
2017-08-09T03:48:28.407Z,79.10
2017-08-09T03:50:55.997Z,79.40
2017-08-09T03:53:23.741Z,79.20
2017-08-09T03:55:51.332Z,79.30
2017-08-09T03:58:18.929Z,79.00
2017-08-09T04:00:46.576Z,79.00
2017-08-09T04:03:14.183Z,79.00
2017-08-09T04:05:42.526Z,78.70
2017-08-09T04:08:10.163Z,78.60
2017-08-09T04:10:37.748Z,79.40
2017-08-09T04:13:06.091Z,79.10
2017-08-09T04:15:33.734Z,79.00
2017-08-09T04:18:01.336Z,79.20
2017-08-09T04:20:28.920Z,79.50
2017-08-09T04:22:56.560Z,79.40
2017-08-09T04:25:24.156Z,79.70
2017-08-09T04:27:51.744Z,79.60
2017-08-09T04:30:19.592Z,79.70
2017-08-09T04:32:47.177Z,79.40
2017-08-09T04:35:14.759Z,79.50
2017-08-09T04:37:43.156Z,78.40
2017-08-09T04:40:10.735Z,78.40
2017-08-09T04:42:38.337Z,77.50
2017-08-09T04:45:05.977Z,77.10
2017-08-09T04:47:33.566Z,76.00
2017-08-09T04:50:01.165Z,74.00
2017-08-09T04:52:28.802Z,72.10
2017-08-09T04:54:57.153Z,65.50
2017-08-09T04:57:25.508Z,63.30
2017-08-09T04:59:53.911Z,59.80
2017-08-09T05:02:21.548Z,59.70
2017-08-09T05:04:49.150Z,58.00
2017-08-09T05:07:16.784Z,57.10
2017-08-09T05:09:44.373Z,55.90
2017-08-09T05:12:11.966Z,57.10
2017-08-09T05:14:39.582Z,59.30
2017-08-09T05:17:07.186Z,61.50
2017-08-09T05:19:34.786Z,60.80
2017-08-09T05:22:02.416Z,60.30
2017-08-09T05:24:29.989Z,58.60
2017-08-09T05:26:57.570Z,54.60
2017-08-09T05:29:25.195Z,50.70
2017-08-09T05:31:52.780Z,47.30
2017-08-09T05:34:20.353Z,44.10
2017-08-09T05:36:47.993Z,41.00
2017-08-09T05:39:15.576Z,39.30
2017-08-09T05:41:43.160Z,38.00
2017-08-09T05:44:10.788Z,36.90
2017-08-09T05:46:39.150Z,34.90
2017-08-09T05:49:07.500Z,34.10
2017-08-09T05:51:35.129Z,34.10
2017-08-09T05:54:02.716Z,33.20
2017-08-09T05:56:30.314Z,31.70
2017-08-09T05:58:57.957Z,31.10
2017-08-09T06:01:25.554Z,30.00
2017-08-09T06:03:53.554Z,29.50
2017-08-09T06:06:21.174Z,29.20
2017-08-09T06:08:48.756Z,28.70
2017-08-09T06:11:16.336Z,28.30
2017-08-09T06:13:43.964Z,27.70
2017-08-09T06:16:12.330Z,26.40
2017-08-09T06:18:40.670Z,26.00
2017-08-09T06:21:09.060Z,25.40
2017-08-09T06:23:36.645Z,25.30
2017-08-09T06:26:04.219Z,25.10
2017-08-09T06:28:32.618Z,24.30
2017-08-09T06:31:00.199Z,24.20
2017-08-09T06:33:27.770Z,24.70
2017-08-09T06:35:56.192Z,26.40
2017-08-09T06:38:23.776Z,26.30
2017-08-09T06:40:52.106Z,30.60
2017-08-09T06:43:19.726Z,30.50
2017-08-09T06:45:47.314Z,32.50
2017-08-09T06:48:14.900Z,33.90
2017-08-09T06:50:42.560Z,34.60
2017-08-09T06:53:10.144Z,35.40
2017-08-09T06:55:37.724Z,37.60
2017-08-09T06:58:05.371Z,38.20
2017-08-09T07:00:32.947Z,40.10
2017-08-09T07:03:00.526Z,41.20
2017-08-09T07:05:28.160Z,41.60
2017-08-09T07:07:55.758Z,43.10
2017-08-09T07:10:23.352Z,43.60
2017-08-09T07:12:51.042Z,44.40
2017-08-09T07:15:18.647Z,44.90
2017-08-09T07:17:46.227Z,45.30
2017-08-09T07:20:13.857Z,45.70
2017-08-09T07:22:41.552Z,45.90
2017-08-09T07:25:09.150Z,46.10
2017-08-09T07:27:36.786Z,46.40
2017-08-09T07:30:04.376Z,46.70
2017-08-09T07:32:31.956Z,47.40
2017-08-09T07:34:59.727Z,47.30
2017-08-09T07:37:27.317Z,47.50
2017-08-09T07:39:54.886Z,47.60
2017-08-09T07:42:22.497Z,47.40
2017-08-09T07:44:50.066Z,48.10
2017-08-09T07:47:17.666Z,48.40
2017-08-09T07:49:45.438Z,48.50
2017-08-09T07:52:13.037Z,48.30
2017-08-09T07:54:40.654Z,48.50
2017-08-09T07:57:08.436Z,48.90
2017-08-09T07:59:36.029Z,48.70
2017-08-09T08:02:03.612Z,47.70
2017-08-09T08:04:32.008Z,46.20
2017-08-09T08:06:59.582Z,46.20
2017-08-09T08:09:27.145Z,45.90
2017-08-09T08:11:54.786Z,45.60
2017-08-09T08:14:22.386Z,45.60
2017-08-09T08:16:49.969Z,45.70
2017-08-09T08:19:17.614Z,45.70
2017-08-09T08:21:45.960Z,45.80
2017-08-09T08:24:13.549Z,45.80
2017-08-09T08:26:41.188Z,44.80
2017-08-09T08:29:08.758Z,44.50
2017-08-09T08:31:36.339Z,44.80
2017-08-09T08:34:03.976Z,45.30
2017-08-09T08:36:32.350Z,45.40
2017-08-09T08:39:00.708Z,44.70
2017-08-09T08:41:28.352Z,44.70
2017-08-09T08:43:55.925Z,45.10
2017-08-09T08:46:23.513Z,44.80
2017-08-09T08:48:51.135Z,44.80
2017-08-09T08:51:18.730Z,45.00
2017-08-09T08:53:46.316Z,44.50
2017-08-09T08:56:13.957Z,45.30
2017-08-09T08:58:41.541Z,44.40
2017-08-09T09:01:09.109Z,44.60
2017-08-09T09:03:36.733Z,44.90
2017-08-09T09:06:04.331Z,44.90
2017-08-09T09:08:31.930Z,45.00
2017-08-09T09:10:59.557Z,43.50
2017-08-09T09:13:27.135Z,44.30
2017-08-09T09:15:55.470Z,44.60
2017-08-09T09:18:23.101Z,44.80
2017-08-09T09:20:50.676Z,42.90
2017-08-09T09:23:19.024Z,41.70
2017-08-09T09:25:47.405Z,42.80
2017-08-09T09:28:15.761Z,42.80
2017-08-09T09:30:44.098Z,41.80
2017-08-09T09:33:11.736Z,41.70
2017-08-09T09:35:39.325Z,41.70
2017-08-09T09:38:06.908Z,41.20
2017-08-09T09:40:34.581Z,41.40
2017-08-09T09:43:02.154Z,42.70
2017-08-09T09:45:30.505Z,43.70
2017-08-09T09:47:58.920Z,44.70
2017-08-09T09:50:26.491Z,44.70
2017-08-09T09:52:54.088Z,45.60
2017-08-09T09:55:21.712Z,46.00
2017-08-09T09:57:49.300Z,46.40
2017-08-09T10:00:16.881Z,44.00
2017-08-09T10:02:45.372Z,44.50
2017-08-09T10:05:13.065Z,44.40
2017-08-09T10:07:40.648Z,44.90
2017-08-09T10:10:09.036Z,44.70
2017-08-09T10:12:36.615Z,44.70
2017-08-09T10:15:04.178Z,44.90
2017-08-09T10:17:31.805Z,45.80
2017-08-09T10:19:59.446Z,46.40
2017-08-09T10:22:27.029Z,46.70
2017-08-09T10:24:54.676Z,47.40
2017-08-09T10:27:22.348Z,47.70
2017-08-09T10:29:49.955Z,48.60
2017-08-09T10:32:17.614Z,48.40
2017-08-09T10:34:45.206Z,48.30
2017-08-09T10:37:13.602Z,47.40
2017-08-09T10:39:41.236Z,47.10
2017-08-09T10:42:08.820Z,47.40
2017-08-09T10:44:37.185Z,47.70
2017-08-09T10:47:05.596Z,48.50
2017-08-09T10:49:33.190Z,48.50
2017-08-09T10:52:01.557Z,48.90
2017-08-09T10:54:29.945Z,48.30
2017-08-09T10:56:57.532Z,48.30
2017-08-09T10:59:25.118Z,48.50
2017-08-09T11:01:52.770Z,48.30
2017-08-09T11:04:20.374Z,48.90
2017-08-09T11:06:47.974Z,49.50
2017-08-09T11:09:15.605Z,50.00
2017-08-09T11:11:43.202Z,50.50
2017-08-09T11:14:10.774Z,50.20
2017-08-09T11:16:39.177Z,50.80
2017-08-09T11:19:06.761Z,50.30
2017-08-09T11:21:34.364Z,51.10
2017-08-09T11:24:02.071Z,47.70
2017-08-09T11:26:29.656Z,48.80
2017-08-09T11:28:57.249Z,49.60
2017-08-09T11:31:24.879Z,50.30
2017-08-09T11:33:52.461Z,51.20
2017-08-09T11:36:20.034Z,52.00
2017-08-09T11:38:47.654Z,51.80
2017-08-09T11:41:15.231Z,51.00
2017-08-09T11:43:42.850Z,50.80
2017-08-09T11:46:11.269Z,48.90
2017-08-09T11:48:38.852Z,48.80
2017-08-09T11:51:06.441Z,48.60
2017-08-09T11:53:34.276Z,48.20
2017-08-09T11:56:01.860Z,47.80
2017-08-09T11:58:29.461Z,47.60
2017-08-09T12:00:57.261Z,48.40
2017-08-09T12:03:24.854Z,49.10
2017-08-09T12:05:52.451Z,49.80
2017-08-09T12:08:20.084Z,49.10
2017-08-09T12:10:47.668Z,49.70
2017-08-09T12:13:16.015Z,50.00
2017-08-09T12:15:43.649Z,50.00
2017-08-09T12:18:11.226Z,48.70
2017-08-09T12:20:39.564Z,50.30
2017-08-09T12:23:07.202Z,50.40
2017-08-09T12:25:35.048Z,49.00
2017-08-09T12:28:02.628Z,48.30
2017-08-09T12:30:31.221Z,48.30
2017-08-09T12:32:58.842Z,48.20
2017-08-09T12:35:27.207Z,48.60
2017-08-09T12:37:55.596Z,48.70
2017-08-09T12:40:23.176Z,48.60
2017-08-09T12:42:50.773Z,48.30
2017-08-09T12:45:18.403Z,48.20
2017-08-09T12:47:45.988Z,49.10
2017-08-09T12:50:13.567Z,49.60
2017-08-09T12:52:41.192Z,49.40
2017-08-09T12:55:08.789Z,49.80
2017-08-09T12:57:36.386Z,50.60
2017-08-09T13:00:04.003Z,50.70
2017-08-09T13:02:31.602Z,51.00
2017-08-09T13:04:59.968Z,49.10
2017-08-09T13:07:28.545Z,48.20
2017-08-09T13:09:56.129Z,48.10
2017-08-09T13:12:23.708Z,48.20
2017-08-09T13:14:51.347Z,47.70
2017-08-09T13:17:18.927Z,47.60
2017-08-09T13:19:46.504Z,48.20
2017-08-09T13:22:14.274Z,49.10
2017-08-09T13:24:42.607Z,48.30
2017-08-09T13:27:10.170Z,48.20
2017-08-09T13:29:38.590Z,47.20
2017-08-09T13:32:06.172Z,47.20
2017-08-09T13:34:33.794Z,46.60
2017-08-09T13:37:01.440Z,46.40
2017-08-09T13:39:29.021Z,45.10
2017-08-09T13:41:57.368Z,45.00
2017-08-09T13:44:25.003Z,44.90
2017-08-09T13:46:52.589Z,44.80
2017-08-09T13:49:20.164Z,45.60
2017-08-09T13:51:47.785Z,45.70
2017-08-09T13:54:15.367Z,47.00
2017-08-09T13:56:42.934Z,45.60
2017-08-09T13:59:10.551Z,45.30
2017-08-09T14:01:38.124Z,44.80
2017-08-09T14:04:05.700Z,45.50
2017-08-09T14:06:33.338Z,44.80
2017-08-09T14:09:00.915Z,45.80
2017-08-09T14:11:28.586Z,46.50
2017-08-09T14:13:56.198Z,47.00
2017-08-09T14:16:23.780Z,46.10
2017-08-09T14:18:51.373Z,45.50
2017-08-09T14:21:18.992Z,46.00
2017-08-09T14:23:47.430Z,47.20
2017-08-09T14:26:14.995Z,46.80
2017-08-09T14:28:42.619Z,47.50
2017-08-09T14:31:10.206Z,47.30
2017-08-09T14:33:38.539Z,47.50
2017-08-09T14:38:27.814Z,47.50
2017-08-09T14:40:56.142Z,45.40
2017-08-09T14:43:24.484Z,44.90
2017-08-09T14:45:52.131Z,44.30
2017-08-09T14:48:19.708Z,42.60
2017-08-09T14:50:48.051Z,42.20
2017-08-09T14:53:15.672Z,42.20
2017-08-09T14:55:43.252Z,42.70
2017-08-09T14:58:11.600Z,43.90
2017-08-09T15:00:39.234Z,43.80
2017-08-09T15:03:06.808Z,44.40
2017-08-09T15:05:35.156Z,43.50
2017-08-09T15:08:03.574Z,44.60
2017-08-09T15:10:31.151Z,43.90
2017-08-09T15:12:58.732Z,44.80
2017-08-09T15:15:26.356Z,45.20
2017-08-09T15:17:54.712Z,45.20
2017-08-09T15:20:22.297Z,44.90
2017-08-09T15:22:49.928Z,45.30
2017-08-09T15:25:17.513Z,46.00
2017-08-09T15:27:45.088Z,46.00
2017-08-09T15:30:12.725Z,46.80
2017-08-09T15:32:40.291Z,46.20
2017-08-09T15:35:08.627Z,45.30
2017-08-09T15:37:36.313Z,45.30
2017-08-09T15:40:03.892Z,45.30
2017-08-09T15:42:31.473Z,45.10
2017-08-09T15:44:59.857Z,46.90
2017-08-09T15:47:27.427Z,46.90
2017-08-09T15:49:55.024Z,46.40
2017-08-09T15:52:23.414Z,45.90
2017-08-09T15:54:50.978Z,45.90
2017-08-09T15:57:18.546Z,45.60
2017-08-09T15:59:46.175Z,46.30
2017-08-09T16:02:13.752Z,46.80
2017-08-09T16:04:42.109Z,46.90
2017-08-09T16:07:10.508Z,47.00
2017-08-09T16:09:38.158Z,47.10
2017-08-09T16:12:05.790Z,47.30
2017-08-09T16:14:33.442Z,47.30
2017-08-09T16:17:01.032Z,47.40
2017-08-09T16:19:28.594Z,48.10
2017-08-09T16:21:56.242Z,47.90
2017-08-09T16:24:23.816Z,48.00
2017-08-09T16:26:51.405Z,47.50
2017-08-09T16:29:19.056Z,48.10
2017-08-09T16:31:46.645Z,47.90
2017-08-09T16:34:14.224Z,48.60
2017-08-09T16:36:41.843Z,48.40
2017-08-09T16:39:09.424Z,49.00
2017-08-09T16:41:37.004Z,49.00
2017-08-09T16:44:04.642Z,48.90
2017-08-09T16:46:32.226Z,48.60
2017-08-09T16:48:59.808Z,48.40
2017-08-09T16:51:27.443Z,48.90
2017-08-09T16:53:55.037Z,48.10
2017-08-09T16:56:22.603Z,47.90
2017-08-09T16:58:50.210Z,48.20
2017-08-09T17:01:17.917Z,48.80
2017-08-09T17:03:45.494Z,48.90
2017-08-09T17:06:13.126Z,49.20
2017-08-09T17:08:40.717Z,49.10
2017-08-09T17:11:08.292Z,48.10
2017-08-09T17:13:36.687Z,47.60
2017-08-09T17:16:04.272Z,47.60
2017-08-09T17:18:31.846Z,47.80
2017-08-09T17:20:59.483Z,48.20
2017-08-09T17:23:27.828Z,48.00
2017-08-09T17:25:55.390Z,48.00
2017-08-09T17:28:23.811Z,49.10
2017-08-09T17:30:51.391Z,48.90
2017-08-09T17:33:19.754Z,49.60
2017-08-09T17:35:48.156Z,49.20
2017-08-09T17:38:15.726Z,49.10
2017-08-09T17:40:43.295Z,49.40
2017-08-09T17:43:10.903Z,49.80
2017-08-09T17:45:39.248Z,49.60
2017-08-09T17:48:06.840Z,49.40
2017-08-09T17:50:34.461Z,49.70
2017-08-09T17:53:02.104Z,50.60
2017-08-09T17:55:30.458Z,50.70
2017-08-09T17:57:58.894Z,50.90
2017-08-09T18:00:26.462Z,50.90
2017-08-09T18:02:54.818Z,51.60
2017-08-09T18:05:23.220Z,51.80
2017-08-09T18:07:50.783Z,51.80
2017-08-09T18:10:18.361Z,52.10
2017-08-09T18:12:45.990Z,52.20
2017-08-09T18:15:13.572Z,52.40
2017-08-09T18:17:41.911Z,52.90
2017-08-09T18:20:09.539Z,52.90
2017-08-09T18:22:37.118Z,53.30
2017-08-09T18:25:05.455Z,53.70
2017-08-09T18:27:33.076Z,53.70
2017-08-09T18:30:00.659Z,53.90
2017-08-09T18:32:28.246Z,54.10
2017-08-09T18:34:55.891Z,54.60
2017-08-09T18:37:23.477Z,54.70
2017-08-09T18:39:51.068Z,54.90
2017-08-09T18:42:19.478Z,56.20
2017-08-09T18:44:47.046Z,55.50
2017-08-09T18:47:14.632Z,56.10
2017-08-09T18:49:43.023Z,57.10
2017-08-09T18:52:10.615Z,57.00
2017-08-09T18:54:38.186Z,56.90
2017-08-09T18:57:06.764Z,57.20
2017-08-09T18:59:34.334Z,57.20
2017-08-09T19:02:01.912Z,57.50
2017-08-09T19:04:29.545Z,58.50
2017-08-09T19:06:57.142Z,59.00
2017-08-09T19:09:24.719Z,58.90
2017-08-09T19:11:52.365Z,58.80
2017-08-09T19:14:19.954Z,59.10
2017-08-09T19:16:48.300Z,59.40
2017-08-09T19:19:15.920Z,59.40
2017-08-09T19:21:43.483Z,59.60
2017-08-09T19:24:11.060Z,59.90
2017-08-09T19:26:38.710Z,60.20
2017-08-09T19:29:06.300Z,60.20
2017-08-09T19:31:33.870Z,60.40
2017-08-09T19:34:01.488Z,60.70
2017-08-09T19:36:29.064Z,61.10
2017-08-09T19:38:57.412Z,62.20
2017-08-09T19:41:25.022Z,61.80
2017-08-09T19:43:52.619Z,62.10
2017-08-09T19:46:20.196Z,62.30
2017-08-09T19:48:48.603Z,62.60
2017-08-09T19:51:16.179Z,62.60
2017-08-09T19:53:43.766Z,63.00
2017-08-09T19:56:11.617Z,63.10
2017-08-09T19:58:39.314Z,63.50
2017-08-09T20:01:06.906Z,63.70
2017-08-09T20:03:34.543Z,63.90
2017-08-09T20:06:02.893Z,64.30
2017-08-09T20:08:31.236Z,65.00
2017-08-09T20:10:58.851Z,64.30
2017-08-09T20:13:26.429Z,64.40
2017-08-09T20:15:54.008Z,65.00
2017-08-09T20:18:21.618Z,65.00
2017-08-09T20:20:49.218Z,65.10
2017-08-09T20:23:16.808Z,65.30
2017-08-09T20:25:44.542Z,65.40
2017-08-09T20:28:12.121Z,65.50
2017-08-09T20:30:40.486Z,65.80
2017-08-09T20:33:08.896Z,66.30
2017-08-09T20:35:36.484Z,66.30
2017-08-09T20:38:04.853Z,66.80
2017-08-09T20:40:33.262Z,66.90
2017-08-09T20:43:00.836Z,66.80
2017-08-09T20:45:29.177Z,66.80
2017-08-09T20:47:56.805Z,66.80
2017-08-09T20:50:24.402Z,66.90
2017-08-09T20:52:51.990Z,67.10
2017-08-09T20:55:19.608Z,67.30
2017-08-09T20:57:47.197Z,67.20
2017-08-09T21:00:14.776Z,67.30
2017-08-09T21:02:42.392Z,67.30
2017-08-09T21:05:09.977Z,67.20
2017-08-09T21:07:37.556Z,67.70
2017-08-09T21:10:05.169Z,68.00
2017-08-09T21:12:32.762Z,68.50
2017-08-09T21:15:00.356Z,68.70
2017-08-09T21:17:27.996Z,68.80
2017-08-09T21:19:55.562Z,68.60
2017-08-09T21:22:23.149Z,68.30
2017-08-09T21:24:51.562Z,69.00
2017-08-09T21:27:19.145Z,68.90
2017-08-09T21:29:46.732Z,69.00
2017-08-09T21:32:14.358Z,69.30
2017-08-09T21:34:42.718Z,69.00
2017-08-09T21:37:11.081Z,69.00
2017-08-09T21:39:39.486Z,69.50
2017-08-09T21:42:07.071Z,69.50
2017-08-09T21:44:34.666Z,69.70
2017-08-09T21:47:03.066Z,69.50
2017-08-09T21:49:30.665Z,69.40
2017-08-09T21:51:58.999Z,69.70
2017-08-09T21:54:26.629Z,69.70
2017-08-09T21:56:54.208Z,70.10
2017-08-09T21:59:21.788Z,70.30
2017-08-09T22:01:49.432Z,70.40
2017-08-09T22:04:17.027Z,70.50
2017-08-09T22:06:44.608Z,70.80
2017-08-09T22:09:13.001Z,71.20
2017-08-09T22:11:40.593Z,71.20
2017-08-09T22:14:08.186Z,72.00
2017-08-09T22:16:35.931Z,71.70
2017-08-09T22:19:03.512Z,72.30
2017-08-09T22:21:31.110Z,72.10
2017-08-09T22:23:58.725Z,72.60
2017-08-09T22:26:27.085Z,73.10
2017-08-09T22:28:55.450Z,73.10
2017-08-09T22:31:23.854Z,74.00
2017-08-09T22:33:51.454Z,73.30
2017-08-09T22:36:19.804Z,73.50
2017-08-09T22:38:47.428Z,73.80
2017-08-09T22:41:15.012Z,73.80
2017-08-09T22:43:43.369Z,73.60
2017-08-09T22:46:11.760Z,73.40
2017-08-09T22:48:39.345Z,73.70
2017-08-09T22:51:06.932Z,73.80
2017-08-09T22:53:35.350Z,73.90
2017-08-09T22:56:02.933Z,73.90
2017-08-09T22:58:30.529Z,73.90
2017-08-09T23:00:58.348Z,73.90
2017-08-09T23:03:25.929Z,73.80
2017-08-09T23:05:53.508Z,74.30
2017-08-09T23:08:21.887Z,74.50
2017-08-09T23:10:49.473Z,74.50
2017-08-09T23:13:17.057Z,74.40
2017-08-09T23:15:45.475Z,74.50
2017-08-09T23:18:13.054Z,74.50
2017-08-09T23:20:40.654Z,74.60
2017-08-09T23:23:08.284Z,74.70
2017-08-09T23:25:35.863Z,74.80
2017-08-09T23:28:03.447Z,75.00
2017-08-09T23:30:31.837Z,75.80
2017-08-09T23:32:59.420Z,75.80
2017-08-09T23:35:27.013Z,76.00
2017-08-09T23:37:54.639Z,76.00
2017-08-09T23:40:23.024Z,76.50
2017-08-09T23:42:50.612Z,76.40
2017-08-09T23:45:18.273Z,76.70
2017-08-09T23:47:45.846Z,76.80
2017-08-09T23:50:13.449Z,76.70
2017-08-09T23:52:41.247Z,76.90
2017-08-09T23:55:08.891Z,77.20
2017-08-09T23:57:36.489Z,77.20
